Time;durP1;ratioP1;P1;durP2;ratioP2;P2;SDS_P1;SDS_P2;PMS_P1;PMS_P2;Temp;Humidity;BMP_temperature;BMP_pressure;BME280_temperature;BME280_humidity;BME280_pressure;Samples;Min_cycle;Max_cycle;Signal;HPM_P1;HPM_P2
2023/09/07 00:00:37;;;;;;;8.10;4.20;;;;;;;;;;5039170;28;20076;-84
2023/09/07 00:03:04;;;;;;;6.65;3.97;;;;;;;;;;5040392;28;20076;-84
2023/09/07 00:05:30;;;;;;;7.78;4.30;;;;;;;;;;5037813;28;20458;-85
2023/09/07 00:07:56;;;;;;;7.75;4.28;;;;;;;;;;5039983;28;20037;-85
2023/09/07 00:10:22;;;;;;;8.18;4.07;;;;;;;;;;5033248;28;20042;-85
2023/09/07 00:12:48;;;;;;;7.90;4.35;;;;;;;;;;5044038;28;20503;-84
2023/09/07 00:15:14;;;;;;;9.57;4.50;;;;;;;;;;5036844;28;20062;-84
2023/09/07 00:17:40;;;;;;;8.88;4.53;;;;;;;;;;5037457;28;20109;-84
2023/09/07 00:20:16;;;;;;;6.32;4.30;;;;;;;;;;5038494;28;20393;-85
2023/09/07 00:22:42;;;;;;;6.22;4.18;;;;;;;;;;5023443;28;20038;-85
2023/09/07 00:25:09;;;;;;;8.02;4.45;;;;;;;;;;5039087;28;20045;-85
2023/09/07 00:27:35;;;;;;;8.13;4.20;;;;;;;;;;5039840;28;20072;-84
2023/09/07 00:30:01;;;;;;;11.02;4.15;;;;;;;;;;5020911;28;20045;-85
2023/09/07 00:32:27;;;;;;;6.97;3.92;;;;;;;;;;5039148;28;20550;-84
2023/09/07 00:34:53;;;;;;;7.22;4.10;;;;;;;;;;5038275;28;20041;-84
2023/09/07 00:37:20;;;;;;;11.57;4.78;;;;;;;;;;5038368;28;20109;-85
2023/09/07 00:39:46;;;;;;;6.57;4.28;;;;;;;;;;5038405;28;20041;-84
2023/09/07 00:42:12;;;;;;;9.40;4.65;;;;;;;;;;5039579;28;20040;-84
2023/09/07 00:44:38;;;;;;;7.93;4.38;;;;;;;;;;5038118;28;20057;-85
2023/09/07 00:47:05;;;;;;;7.72;4.47;;;;;;;;;;5038549;28;20116;-84
2023/09/07 00:49:31;;;;;;;8.38;4.45;;;;;;;;;;5037136;28;20124;-85
2023/09/07 00:51:57;;;;;;;9.18;4.47;;;;;;;;;;5039112;28;20063;-83
2023/09/07 00:54:23;;;;;;;10.35;4.38;;;;;;;;;;5037145;28;20077;-85
2023/09/07 00:56:49;;;;;;;8.50;4.50;;;;;;;;;;5036735;28;20042;-84
2023/09/07 00:59:15;;;;;;;7.35;4.40;;;;;;;;;;5036886;28;20497;-84
2023/09/07 01:01:43;;;;;;;7.43;4.60;;;;;;;;;;5035249;28;20042;-84
2023/09/07 01:04:09;;;;;;;9.23;4.35;;;;;;;;;;5037102;28;20045;-85
2023/09/07 01:06:45;;;;;;;9.75;4.68;;;;;;;;;;5045136;28;20037;-85
2023/09/07 01:09:15;;;;;;;6.43;4.03;;;;;;;;;;5036490;28;20048;-85
2023/09/07 01:11:41;;;;;;;10.75;4.53;;;;;;;;;;5036775;28;20504;-84
2023/09/07 01:14:07;;;;;;;9.80;4.70;;;;;;;;;;5036865;28;20075;-84
2023/09/07 01:16:33;;;;;;;10.48;4.72;;;;;;;;;;5012728;28;20055;-84
2023/09/07 01:19:01;;;;;;;9.35;5.00;;;;;;;;;;5009544;28;20492;-85
2023/09/07 01:21:28;;;;;;;7.88;4.70;;;;;;;;;;5017569;28;20133;-84
2023/09/07 01:23:54;;;;;;;8.27;4.60;;;;;;;;;;5018596;28;20042;-85
2023/09/07 01:26:20;;;;;;;7.22;4.60;;;;;;;;;;5004631;28;20046;-85
2023/09/07 01:28:47;;;;;;;7.03;4.60;;;;;;;;;;5016439;28;20117;-85
2023/09/07 01:31:13;;;;;;;8.63;4.55;;;;;;;;;;5012815;28;20054;-85
2023/09/07 01:33:39;;;;;;;8.73;5.00;;;;;;;;;;5017350;28;20099;-85
2023/09/07 01:36:05;;;;;;;10.63;4.80;;;;;;;;;;5016628;28;20046;-85
2023/09/07 01:38:31;;;;;;;8.55;4.80;;;;;;;;;;5018401;28;20570;-84
2023/09/07 01:40:57;;;;;;;8.32;4.63;;;;;;;;;;5017142;28;20101;-85
2023/09/07 01:43:23;;;;;;;8.35;5.07;;;;;;;;;;5018382;28;20080;-85
2023/09/07 01:45:49;;;;;;;8.32;4.60;;;;;;;;;;5012318;28;20671;-84
2023/09/07 01:48:15;;;;;;;6.63;4.80;;;;;;;;;;5018350;28;20065;-84
2023/09/07 01:50:41;;;;;;;7.05;4.93;;;;;;;;;;5018385;28;20128;-84
2023/09/07 01:53:08;;;;;;;8.63;4.75;;;;;;;;;;5017489;28;20049;-85
2023/09/07 01:55:34;;;;;;;10.70;5.25;;;;;;;;;;5014920;28;20152;-85
2023/09/07 01:58:00;;;;;;;8.93;4.82;;;;;;;;;;5017521;28;20038;-84
2023/09/07 02:00:26;;;;;;;7.32;5.03;;;;;;;;;;5016792;28;20087;-85
2023/09/07 02:02:52;;;;;;;9.57;4.70;;;;;;;;;;5016554;28;20095;-84
2023/09/07 02:05:18;;;;;;;8.02;5.00;;;;;;;;;;5016778;28;20136;-85
2023/09/07 02:07:44;;;;;;;7.28;4.75;;;;;;;;;;5013678;28;20034;-85
2023/09/07 02:10:11;;;;;;;8.23;4.85;;;;;;;;;;5017900;28;20396;-85
2023/09/07 02:12:37;;;;;;;11.02;5.25;;;;;;;;;;5016987;28;20504;-86
2023/09/07 02:15:04;;;;;;;11.27;4.88;;;;;;;;;;5014573;28;20050;-85
2023/09/07 02:17:30;;;;;;;9.25;5.10;;;;;;;;;;5036289;28;20404;-85
2023/09/07 02:19:56;;;;;;;9.07;4.90;;;;;;;;;;5019420;28;20484;-85
2023/09/07 02:22:22;;;;;;;9.52;5.22;;;;;;;;;;5035294;28;20041;-85
2023/09/07 02:24:48;;;;;;;8.75;5.20;;;;;;;;;;5038127;28;20045;-84
2023/09/07 02:27:15;;;;;;;10.60;5.00;;;;;;;;;;5035897;28;20488;-85
2023/09/07 02:29:41;;;;;;;7.35;5.28;;;;;;;;;;5038842;28;20040;-85
2023/09/07 02:32:07;;;;;;;7.32;5.30;;;;;;;;;;5031447;28;20056;-84
2023/09/07 02:34:36;;;;;;;8.10;5.13;;;;;;;;;;5035260;28;20050;-85
2023/09/07 02:37:02;;;;;;;10.13;5.13;;;;;;;;;;5036989;28;20041;-85
2023/09/07 02:39:28;;;;;;;9.23;4.85;;;;;;;;;;5037001;28;20045;-85
2023/09/07 02:41:54;;;;;;;8.57;5.13;;;;;;;;;;5037705;28;20052;-84
2023/09/07 02:44:20;;;;;;;9.40;5.07;;;;;;;;;;5036851;28;20046;-84
2023/09/07 02:46:47;;;;;;;9.45;5.70;;;;;;;;;;5035800;28;20042;-84
2023/09/07 02:49:13;;;;;;;9.32;5.30;;;;;;;;;;5016563;28;20073;-84
2023/09/07 02:51:39;;;;;;;7.63;5.22;;;;;;;;;;5033052;28;20048;-85
2023/09/07 02:54:05;;;;;;;9.95;5.60;;;;;;;;;;5037459;28;20045;-84
2023/09/07 02:56:31;;;;;;;10.32;5.40;;;;;;;;;;5019019;28;20053;-86
2023/09/07 02:58:57;;;;;;;9.02;5.32;;;;;;;;;;5035155;28;20049;-85
2023/09/07 03:01:23;;;;;;;9.50;5.25;;;;;;;;;;5037525;28;20052;-85
2023/09/07 03:03:50;;;;;;;9.85;5.53;;;;;;;;;;5036268;28;20041;-85
2023/09/07 03:06:16;;;;;;;6.72;5.50;;;;;;;;;;5011495;28;20139;-85
2023/09/07 03:08:43;;;;;;;7.65;5.20;;;;;;;;;;5036882;28;20057;-85
2023/09/07 03:11:10;;;;;;;12.82;5.82;;;;;;;;;;5036792;28;20150;-85
2023/09/07 03:13:36;;;;;;;8.18;5.55;;;;;;;;;;5036537;28;20041;-85
2023/09/07 03:16:03;;;;;;;8.45;5.70;;;;;;;;;;5035921;28;20061;-85
2023/09/07 03:18:29;;;;;;;8.63;5.40;;;;;;;;;;5035424;28;20454;-85
2023/09/07 03:20:59;;;;;;;7.72;5.85;;;;;;;;;;5036904;28;20042;-85
2023/09/07 03:23:25;;;;;;;9.40;5.75;;;;;;;;;;5034322;28;20061;-85
2023/09/07 03:25:52;;;;;;;11.38;6.15;;;;;;;;;;5034801;28;20099;-85
2023/09/07 03:28:18;;;;;;;10.02;6.90;;;;;;;;;;5037662;28;20049;-85
2023/09/07 03:30:44;;;;;;;13.70;5.97;;;;;;;;;;5038268;28;20042;-85
2023/09/07 03:33:10;;;;;;;10.30;6.43;;;;;;;;;;5038790;28;20049;-85
2023/09/07 03:35:37;;;;;;;11.23;6.30;;;;;;;;;;5037095;28;20053;-85
2023/09/07 03:38:03;;;;;;;9.70;6.13;;;;;;;;;;5039954;28;20054;-85
2023/09/07 03:40:29;;;;;;;8.05;5.82;;;;;;;;;;5041049;28;20403;-85
2023/09/07 03:42:55;;;;;;;7.82;5.85;;;;;;;;;;5040373;28;20065;-86
2023/09/07 03:45:21;;;;;;;9.88;6.57;;;;;;;;;;5039146;28;20095;-85
2023/09/07 03:47:47;;;;;;;9.90;7.03;;;;;;;;;;5040001;28;20049;-85
2023/09/07 03:50:14;;;;;;;9.75;6.85;;;;;;;;;;5040586;28;20050;-85
2023/09/07 03:52:40;;;;;;;10.43;6.20;;;;;;;;;;5039876;28;20038;-85
2023/09/07 03:55:06;;;;;;;9.07;6.68;;;;;;;;;;5039706;28;20046;-84
2023/09/07 03:57:32;;;;;;;9.57;6.00;;;;;;;;;;5039100;28;20216;-86
2023/09/07 03:59:58;;;;;;;10.50;6.50;;;;;;;;;;5040148;28;20045;-85
2023/09/07 04:02:25;;;;;;;10.90;6.93;;;;;;;;;;5038769;28;20084;-85
2023/09/07 04:04:52;;;;;;;11.57;5.93;;;;;;;;;;5037121;28;20553;-84
2023/09/07 04:07:18;;;;;;;10.27;6.95;;;;;;;;;;5016037;28;20403;-85
2023/09/07 04:09:45;;;;;;;9.65;7.00;;;;;;;;;;5020829;28;20038;-85
2023/09/07 04:12:11;;;;;;;13.27;6.95;;;;;;;;;;5038038;28;20041;-85
2023/09/07 04:14:38;;;;;;;9.27;6.50;;;;;;;;;;5037859;28;20041;-85
2023/09/07 04:17:04;;;;;;;9.00;7.05;;;;;;;;;;5037300;28;20053;-85
2023/09/07 04:19:30;;;;;;;9.10;6.65;;;;;;;;;;5038388;28;20096;-85
2023/09/07 04:21:57;;;;;;;11.23;7.40;;;;;;;;;;5040071;28;20041;-85
2023/09/07 04:24:30;;;;;;;9.53;6.97;;;;;;;;;;5038221;28;20049;-84
2023/09/07 04:27:00;;;;;;;9.70;7.10;;;;;;;;;;5030334;28;20069;-85
2023/09/07 04:29:26;;;;;;;9.77;7.07;;;;;;;;;;5040442;28;20064;-84
2023/09/07 04:31:52;;;;;;;8.82;6.63;;;;;;;;;;5040561;28;20051;-84
2023/09/07 04:34:19;;;;;;;9.57;6.85;;;;;;;;;;5036115;28;20087;-85
2023/09/07 04:36:45;;;;;;;8.68;6.75;;;;;;;;;;5038259;28;20049;-85
2023/09/07 04:39:14;;;;;;;9.82;7.13;;;;;;;;;;5037712;28;20529;-85
2023/09/07 04:41:40;;;;;;;11.10;7.20;;;;;;;;;;5036622;28;20057;-85
2023/09/07 04:44:09;;;;;;;10.02;7.45;;;;;;;;;;5037632;28;20120;-85
2023/09/07 04:46:35;;;;;;;9.63;7.15;;;;;;;;;;5037005;28;20112;-85
2023/09/07 04:49:01;;;;;;;9.15;7.35;;;;;;;;;;5038249;28;20190;-85
2023/09/07 04:51:27;;;;;;;9.85;6.78;;;;;;;;;;5037179;28;20042;-85
2023/09/07 04:53:53;;;;;;;10.52;7.60;;;;;;;;;;5038122;28;20105;-85
2023/09/07 04:56:21;;;;;;;10.20;6.93;;;;;;;;;;5037891;28;20128;-85
2023/09/07 04:58:47;;;;;;;11.82;7.70;;;;;;;;;;5038438;28;20045;-85
2023/09/07 05:01:13;;;;;;;10.00;7.05;;;;;;;;;;5037598;28;20049;-85
2023/09/07 05:03:40;;;;;;;10.18;7.22;;;;;;;;;;5019412;28;20038;-85
2023/09/07 05:06:06;;;;;;;11.38;8.05;;;;;;;;;;5020221;28;20076;-84
2023/09/07 05:08:32;;;;;;;10.30;6.97;;;;;;;;;;5037403;28;20046;-84
2023/09/07 05:10:59;;;;;;;10.05;7.80;;;;;;;;;;5037691;28;20037;-85
2023/09/07 05:13:26;;;;;;;12.13;7.95;;;;;;;;;;5036482;28;20412;-85
2023/09/07 05:15:52;;;;;;;8.93;8.00;;;;;;;;;;5035599;28;20111;-84
2023/09/07 05:18:19;;;;;;;11.32;6.88;;;;;;;;;;5045532;28;20053;-85
2023/09/07 05:20:45;;;;;;;10.15;7.78;;;;;;;;;;5046085;28;20117;-84
2023/09/07 05:23:15;;;;;;;10.25;7.82;;;;;;;;;;5037385;28;20487;-85
2023/09/07 05:25:52;;;;;;;12.27;7.90;;;;;;;;;;5016882;28;20053;-84
2023/09/07 05:28:18;;;;;;;9.50;7.95;;;;;;;;;;5012702;28;20099;-85
2023/09/07 05:30:44;;;;;;;11.35;7.88;;;;;;;;;;5042815;28;20038;-84
2023/09/07 05:33:11;;;;;;;12.90;8.32;;;;;;;;;;5036957;28;20045;-85
2023/09/07 05:35:37;;;;;;;13.98;8.18;;;;;;;;;;5035885;28;20392;-84
2023/09/07 05:38:05;;;;;;;9.10;7.80;;;;;;;;;;5035488;28;20049;-84
2023/09/07 05:40:34;;;;;;;13.20;7.40;;;;;;;;;;5036393;28;20048;-85
2023/09/07 05:43:00;;;;;;;9.93;7.40;;;;;;;;;;5035027;28;20077;-85
2023/09/07 05:45:26;;;;;;;13.45;6.63;;;;;;;;;;5037673;28;20044;-85
2023/09/07 05:47:52;;;;;;;17.58;7.47;;;;;;;;;;5036654;28;20041;-85
2023/09/07 05:50:18;;;;;;;14.55;7.28;;;;;;;;;;5038103;28;20038;-85
2023/09/07 05:52:44;;;;;;;11.88;6.72;;;;;;;;;;5036499;28;20042;-85
2023/09/07 05:55:10;;;;;;;11.38;6.70;;;;;;;;;;5037481;28;20045;-84
2023/09/07 05:57:36;;;;;;;11.88;6.90;;;;;;;;;;5042125;28;20041;-86
2023/09/07 06:00:04;;;;;;;12.15;6.32;;;;;;;;;;5029493;28;20056;-86
2023/09/07 06:02:30;;;;;;;10.95;6.60;;;;;;;;;;5016617;28;20124;-85
2023/09/07 06:04:56;;;;;;;12.18;6.65;;;;;;;;;;5031794;28;20052;-85
2023/09/07 06:07:22;;;;;;;12.23;7.60;;;;;;;;;;5036864;28;20041;-84
2023/09/07 06:09:48;;;;;;;13.10;6.78;;;;;;;;;;5020688;28;20037;-85
2023/09/07 06:12:14;;;;;;;12.02;6.22;;;;;;;;;;5036202;28;20033;-85
2023/09/07 06:14:40;;;;;;;10.43;6.47;;;;;;;;;;5036109;28;20045;-85
2023/09/07 06:17:06;;;;;;;12.07;6.18;;;;;;;;;;5016292;28;20057;-86
2023/09/07 06:19:33;;;;;;;16.60;6.10;;;;;;;;;;5033174;28;20063;-86
2023/09/07 06:21:59;;;;;;;16.52;6.47;;;;;;;;;;5033842;28;20050;-86
2023/09/07 06:24:25;;;;;;;28.73;7.32;;;;;;;;;;5037843;28;20045;-86
2023/09/07 06:26:51;;;;;;;12.68;6.63;;;;;;;;;;5033726;28;20106;-86
2023/09/07 06:29:18;;;;;;;9.73;6.32;;;;;;;;;;5037247;28;20056;-85
2023/09/07 06:31:44;;;;;;;12.35;6.47;;;;;;;;;;5033832;28;20041;-86
2023/09/07 06:34:10;;;;;;;11.70;6.45;;;;;;;;;;5035869;28;20127;-85
2023/09/07 06:36:36;;;;;;;21.95;6.25;;;;;;;;;;5033771;28;20042;-86
2023/09/07 06:39:02;;;;;;;11.60;6.47;;;;;;;;;;5009606;28;20141;-86
2023/09/07 06:41:28;;;;;;;13.00;6.43;;;;;;;;;;5024641;28;20168;-86
2023/09/07 06:43:55;;;;;;;10.80;6.10;;;;;;;;;;5017072;28;20061;-86
2023/09/07 06:46:21;;;;;;;11.88;6.13;;;;;;;;;;5024657;28;20041;-86
2023/09/07 06:48:48;;;;;;;10.68;5.65;;;;;;;;;;5034519;28;20041;-86
2023/09/07 06:51:14;;;;;;;9.07;6.07;;;;;;;;;;5016257;28;20061;-86
2023/09/07 06:53:41;;;;;;;8.38;5.82;;;;;;;;;;5035481;28;20107;-86
2023/09/07 06:56:07;;;;;;;16.98;6.90;;;;;;;;;;5018414;28;20053;-86
2023/09/07 06:58:34;;;;;;;16.80;6.60;;;;;;;;;;5035391;28;20076;-86
2023/09/07 07:01:00;;;;;;;11.43;5.93;;;;;;;;;;5027735;28;20042;-86
2023/09/07 07:03:30;;;;;;;18.25;6.60;;;;;;;;;;5021333;28;20053;-86
2023/09/07 07:05:57;;;;;;;21.48;7.28;;;;;;;;;;5037794;28;20051;-86
2023/09/07 07:08:23;;;;;;;16.67;6.45;;;;;;;;;;5040796;28;20045;-86
2023/09/07 07:10:50;;;;;;;10.55;6.57;;;;;;;;;;5038793;28;20045;-85
2023/09/07 07:13:16;;;;;;;9.68;6.07;;;;;;;;;;5040262;28;20107;-85
2023/09/07 07:15:42;;;;;;;15.27;6.63;;;;;;;;;;5040478;28;20077;-86
2023/09/07 07:18:09;;;;;;;16.98;6.40;;;;;;;;;;5020124;28;20053;-86
2023/09/07 07:20:39;;;;;;;15.40;7.75;;;;;;;;;;5014627;28;20057;-86
2023/09/07 07:23:08;;;;;;;13.80;6.63;;;;;;;;;;5030961;28;20599;-87
2023/09/07 07:25:34;;;;;;;10.48;6.80;;;;;;;;;;5021097;28;20047;-86
2023/09/07 07:28:03;;;;;;;11.80;5.65;;;;;;;;;;5016054;28;20046;-86
2023/09/07 07:30:29;;;;;;;9.60;5.95;;;;;;;;;;5038158;28;20091;-87
2023/09/07 07:32:56;;;;;;;11.60;6.28;;;;;;;;;;5038816;28;20041;-87
2023/09/07 07:35:22;;;;;;;9.57;6.25;;;;;;;;;;5036921;28;20045;-88
2023/09/07 07:37:49;;;;;;;11.90;6.40;;;;;;;;;;5037146;28;20041;-85
2023/09/07 07:40:15;;;;;;;8.90;6.22;;;;;;;;;;5039635;28;20456;-86
2023/09/07 07:42:41;;;;;;;8.05;6.25;;;;;;;;;;5038432;28;20037;-85
2023/09/07 07:45:08;;;;;;;7.72;6.00;;;;;;;;;;5041083;28;20099;-85
2023/09/07 07:47:34;;;;;;;11.38;6.45;;;;;;;;;;5040713;28;20037;-85
2023/09/07 07:50:00;;;;;;;14.98;6.70;;;;;;;;;;5039344;28;20148;-85
2023/09/07 07:52:26;;;;;;;9.73;5.88;;;;;;;;;;5029009;28;20106;-84
2023/09/07 07:54:52;;;;;;;11.25;6.68;;;;;;;;;;5034743;28;20050;-84
2023/09/07 07:57:18;;;;;;;10.52;6.30;;;;;;;;;;5030109;28;20091;-85
2023/09/07 07:59:44;;;;;;;9.70;6.10;;;;;;;;;;5040845;28;20041;-84
2023/09/07 08:02:10;;;;;;;10.02;6.72;;;;;;;;;;5038034;28;20491;-85
2023/09/07 08:04:36;;;;;;;9.75;6.10;;;;;;;;;;5023535;28;20093;-84
2023/09/07 08:07:08;;;;;;;8.35;6.47;;;;;;;;;;5029254;28;20076;-85
2023/09/07 08:09:34;;;;;;;9.63;5.97;;;;;;;;;;5034510;28;20056;-85
2023/09/07 08:12:02;;;;;;;8.88;6.25;;;;;;;;;;5038506;28;20127;-84
2023/09/07 08:14:29;;;;;;;9.65;6.30;;;;;;;;;;5039594;28;20137;-83
2023/09/07 08:16:55;;;;;;;14.18;6.60;;;;;;;;;;5038101;28;20049;-85
2023/09/07 08:19:21;;;;;;;10.52;6.70;;;;;;;;;;5040472;28;20049;-84
2023/09/07 08:21:47;;;;;;;9.07;6.70;;;;;;;;;;5039418;28;20100;-84
2023/09/07 08:24:13;;;;;;;9.70;6.43;;;;;;;;;;5040303;28;20056;-83
2023/09/07 08:26:39;;;;;;;7.90;6.35;;;;;;;;;;5039350;28;20049;-84
2023/09/07 08:29:06;;;;;;;7.93;5.53;;;;;;;;;;5040746;28;20083;-84
2023/09/07 08:31:33;;;;;;;9.52;5.90;;;;;;;;;;5028660;28;20037;-84
2023/09/07 08:34:03;;;;;;;10.95;6.30;;;;;;;;;;5041120;28;20104;-84
2023/09/07 08:36:33;;;;;;;8.20;5.80;;;;;;;;;;5040081;28;20045;-84
2023/09/07 08:39:01;;;;;;;8.98;5.78;;;;;;;;;;5020822;28;20060;-84
2023/09/07 08:41:27;;;;;;;9.25;6.05;;;;;;;;;;5035954;28;20117;-84
2023/09/07 08:43:54;;;;;;;8.13;5.63;;;;;;;;;;5040322;28;20095;-84
2023/09/07 08:46:21;;;;;;;9.60;5.75;;;;;;;;;;5040329;28;20077;-84
2023/09/07 08:48:48;;;;;;;9.48;5.63;;;;;;;;;;5040114;28;20164;-84
2023/09/07 08:51:15;;;;;;;8.40;5.10;;;;;;;;;;5039607;28;20046;-84
2023/09/07 08:53:45;;;;;;;8.30;5.60;;;;;;;;;;5039008;28;20514;-84
2023/09/07 08:56:12;;;;;;;9.63;5.43;;;;;;;;;;5039619;28;20112;-84
2023/09/07 08:58:39;;;;;;;7.75;5.10;;;;;;;;;;5039570;28;20097;-84
2023/09/07 09:01:05;;;;;;;9.77;5.20;;;;;;;;;;5017678;28;20109;-84
2023/09/07 09:03:31;;;;;;;7.70;5.38;;;;;;;;;;5039378;28;20523;-84
2023/09/07 09:05:57;;;;;;;7.63;4.78;;;;;;;;;;5037299;28;20038;-82
2023/09/07 09:08:26;;;;;;;9.25;5.22;;;;;;;;;;5035026;28;20424;-82
2023/09/07 09:11:00;;;;;;;8.63;5.70;;;;;;;;;;5035150;28;20041;-83
2023/09/07 09:13:30;;;;;;;8.70;5.00;;;;;;;;;;5034412;28;20052;-83
2023/09/07 09:15:56;;;;;;;9.07;5.00;;;;;;;;;;5040767;28;20117;-83
2023/09/07 09:18:22;;;;;;;9.10;5.18;;;;;;;;;;5041406;28;20046;-84
2023/09/07 09:20:49;;;;;;;9.38;4.57;;;;;;;;;;5025895;28;20050;-84
2023/09/07 09:23:15;;;;;;;11.85;4.97;;;;;;;;;;5024468;28;20111;-84
2023/09/07 09:25:42;;;;;;;10.30;5.32;;;;;;;;;;5039847;28;20045;-83
2023/09/07 09:28:10;;;;;;;7.90;4.85;;;;;;;;;;5039866;28;20041;-83
2023/09/07 09:30:36;;;;;;;7.05;4.30;;;;;;;;;;5034712;28;20045;-84
2023/09/07 09:33:05;;;;;;;8.30;4.75;;;;;;;;;;5040772;28;20042;-83
2023/09/07 09:35:31;;;;;;;8.65;5.10;;;;;;;;;;5017053;28;20046;-83
2023/09/07 09:38:01;;;;;;;7.75;4.43;;;;;;;;;;5034540;28;20042;-84
2023/09/07 09:40:27;;;;;;;9.00;4.72;;;;;;;;;;5021130;28;20128;-83
2023/09/07 09:42:55;;;;;;;9.10;4.88;;;;;;;;;;5020664;28;20055;-84
2023/09/07 09:45:21;;;;;;;8.13;4.30;;;;;;;;;;5020521;28;20057;-84
2023/09/07 09:47:47;;;;;;;7.47;4.40;;;;;;;;;;5018934;28;20049;-83
2023/09/07 09:50:13;;;;;;;9.43;5.28;;;;;;;;;;5023385;28;20049;-83
2023/09/07 09:52:39;;;;;;;13.13;5.68;;;;;;;;;;5024116;28;20112;-83
2023/09/07 09:55:12;;;;;;;8.05;4.65;;;;;;;;;;5027154;28;20049;-83
2023/09/07 09:57:39;;;;;;;8.48;4.78;;;;;;;;;;5026539;28;20049;-83
2023/09/07 10:00:48;;;;;;;10.13;4.50;;;;;;;;;;5040924;28;20034;-83
2023/09/07 10:03:00;;;;;;;7.85;4.70;;;;;;;;;;5012589;28;20057;-83
2023/09/07 10:05:27;;;;;;;7.85;4.25;;;;;;;;;;5036704;28;20069;-82
2023/09/07 10:07:54;;;;;;;9.55;4.45;;;;;;;;;;5041255;28;20055;-82
2023/09/07 10:10:20;;;;;;;8.00;4.43;;;;;;;;;;5041024;28;20498;-83
2023/09/07 10:12:53;;;;;;;7.88;4.50;;;;;;;;;;5040587;28;20165;-83
2023/09/07 10:15:23;;;;;;;8.98;4.05;;;;;;;;;;5042372;28;20066;-81
2023/09/07 10:17:52;;;;;;;10.38;4.50;;;;;;;;;;5040913;28;20112;-83
2023/09/07 10:20:22;;;;;;;13.43;4.40;;;;;;;;;;5024110;28;20068;-82
2023/09/07 10:22:48;;;;;;;15.32;6.25;;;;;;;;;;5032981;28;20049;-84
2023/09/07 10:25:23;;;;;;;10.00;4.30;;;;;;;;;;5037575;28;20050;-82
2023/09/07 10:27:49;;;;;;;8.07;3.85;;;;;;;;;;5035023;28;20041;-81
2023/09/07 10:30:19;;;;;;;6.47;3.92;;;;;;;;;;5035255;28;20046;-83
2023/09/07 10:32:45;;;;;;;6.50;3.67;;;;;;;;;;5020722;28;20412;-83
2023/09/07 10:35:21;;;;;;;10.98;3.80;;;;;;;;;;5039545;28;20076;-82
2023/09/07 10:37:47;;;;;;;7.85;3.80;;;;;;;;;;5040920;28;20135;-82
2023/09/07 10:40:19;;;;;;;6.25;3.80;;;;;;;;;;5025769;28;20061;-81
2023/09/07 10:42:48;;;;;;;7.63;3.67;;;;;;;;;;5025677;28;20050;-82
2023/09/07 10:45:16;;;;;;;8.55;3.85;;;;;;;;;;5041658;28;20042;-82
2023/09/07 10:47:45;;;;;;;6.90;4.07;;;;;;;;;;5040492;28;20053;-82
2023/09/07 10:50:15;;;;;;;6.72;4.07;;;;;;;;;;5041061;28;20048;-82
2023/09/07 10:52:41;;;;;;;6.57;4.20;;;;;;;;;;5039302;28;20124;-82
2023/09/07 10:55:10;;;;;;;8.60;3.80;;;;;;;;;;5039256;28;20092;-82
2023/09/07 10:57:46;;;;;;;5.78;3.53;;;;;;;;;;5037822;28;20049;-83
2023/09/07 11:00:13;;;;;;;8.90;4.30;;;;;;;;;;5038274;28;20546;-82
2023/09/07 11:02:39;;;;;;;7.82;3.90;;;;;;;;;;5021763;28;20400;-81
2023/09/07 11:05:06;;;;;;;9.63;3.92;;;;;;;;;;5041663;28;20049;-82
2023/09/07 11:07:33;;;;;;;7.38;3.92;;;;;;;;;;5041819;28;20044;-82
2023/09/07 11:09:59;;;;;;;8.30;3.60;;;;;;;;;;5043588;28;20408;-81
2023/09/07 11:12:25;;;;;;;8.32;4.03;;;;;;;;;;5042639;28;20459;-81
2023/09/07 11:14:52;;;;;;;8.57;3.92;;;;;;;;;;5043033;28;20041;-82
2023/09/07 11:17:18;;;;;;;9.45;4.07;;;;;;;;;;5022447;28;20057;-83
2023/09/07 11:19:44;;;;;;;5.95;3.75;;;;;;;;;;5040330;28;20042;-82
2023/09/07 11:22:10;;;;;;;8.15;4.20;;;;;;;;;;5041462;28;20112;-82
2023/09/07 11:24:36;;;;;;;8.38;4.00;;;;;;;;;;5041716;28;20068;-82
2023/09/07 11:27:05;;;;;;;8.95;4.03;;;;;;;;;;5023711;28;20041;-82
2023/09/07 11:29:34;;;;;;;8.00;3.65;;;;;;;;;;5042716;28;20519;-83
2023/09/07 11:32:10;;;;;;;5.82;3.60;;;;;;;;;;5040652;28;20042;-82
2023/09/07 11:34:48;;;;;;;7.05;3.60;;;;;;;;;;5041949;28;20038;-83
2023/09/07 11:37:14;;;;;;;8.45;3.83;;;;;;;;;;5022452;28;20561;-82
2023/09/07 11:39:40;;;;;;;8.02;4.15;;;;;;;;;;5043774;28;20046;-82
2023/09/07 11:42:06;;;;;;;8.32;4.15;;;;;;;;;;5043313;28;20045;-82
2023/09/07 11:44:32;;;;;;;9.60;3.88;;;;;;;;;;5040252;28;20033;-83
2023/09/07 11:46:58;;;;;;;9.35;4.03;;;;;;;;;;5039255;28;20041;-82
2023/09/07 11:49:25;;;;;;;7.05;3.90;;;;;;;;;;5046195;28;20041;-82
2023/09/07 11:51:51;;;;;;;7.45;4.00;;;;;;;;;;5046440;28;20188;-82
2023/09/07 11:54:17;;;;;;;8.32;4.10;;;;;;;;;;5041129;28;20510;-82
2023/09/07 11:56:45;;;;;;;8.52;4.40;;;;;;;;;;5040979;28;20047;-85
2023/09/07 11:59:11;;;;;;;8.35;3.80;;;;;;;;;;5024743;28;20049;-83
2023/09/07 12:01:39;;;;;;;8.50;4.00;;;;;;;;;;5043485;28;20046;-83
2023/09/07 12:04:06;;;;;;;10.05;4.38;;;;;;;;;;5040683;28;20045;-82
2023/09/07 12:06:32;;;;;;;7.25;3.75;;;;;;;;;;5040981;28;20052;-83
2023/09/07 12:09:02;;;;;;;7.63;4.18;;;;;;;;;;5041296;28;20033;-83
2023/09/07 12:11:30;;;;;;;7.78;3.80;;;;;;;;;;5032022;28;20052;-82
2023/09/07 12:13:56;;;;;;;6.97;3.60;;;;;;;;;;5041820;28;20056;-83
2023/09/07 12:16:23;;;;;;;7.07;3.92;;;;;;;;;;5005382;28;20068;-83
2023/09/07 12:18:49;;;;;;;8.50;3.65;;;;;;;;;;5039174;28;20053;-84
2023/09/07 12:21:15;;;;;;;7.05;3.65;;;;;;;;;;5041051;28;20046;-84
2023/09/07 12:23:41;;;;;;;11.18;3.75;;;;;;;;;;5041941;28;20038;-85
2023/09/07 12:26:08;;;;;;;9.90;3.97;;;;;;;;;;5022568;28;20056;-83
2023/09/07 12:28:36;;;;;;;11.77;4.20;;;;;;;;;;5043507;28;20403;-84
2023/09/07 12:31:02;;;;;;;8.43;3.97;;;;;;;;;;5042408;28;20041;-82
2023/09/07 12:33:30;;;;;;;7.65;3.70;;;;;;;;;;5038099;28;20068;-83
2023/09/07 12:35:56;;;;;;;8.88;3.70;;;;;;;;;;5041393;28;20099;-82
2023/09/07 12:38:27;;;;;;;7.97;3.80;;;;;;;;;;5041338;28;20087;-82
2023/09/07 12:40:53;;;;;;;8.80;3.65;;;;;;;;;;5042752;28;20049;-82
2023/09/07 12:43:19;;;;;;;7.85;3.83;;;;;;;;;;5045138;28;20041;-82
2023/09/07 12:45:46;;;;;;;11.50;3.78;;;;;;;;;;5045618;28;20044;-82
2023/09/07 12:48:12;;;;;;;6.35;3.80;;;;;;;;;;5042952;28;20049;-82
2023/09/07 12:50:42;;;;;;;7.22;3.67;;;;;;;;;;5042449;28;20088;-83
2023/09/07 12:53:09;;;;;;;6.40;3.63;;;;;;;;;;5040757;28;20148;-83
2023/09/07 12:55:35;;;;;;;6.03;3.78;;;;;;;;;;5039838;28;20502;-85
2023/09/07 12:58:01;;;;;;;7.72;3.65;;;;;;;;;;5039739;28;20442;-83
2023/09/07 13:00:28;;;;;;;9.35;3.60;;;;;;;;;;5041128;28;21001;-83
2023/09/07 13:02:55;;;;;;;6.45;3.72;;;;;;;;;;5048440;28;20064;-82
2023/09/07 13:05:21;;;;;;;10.15;3.78;;;;;;;;;;5028445;28;20050;-82
2023/09/07 13:07:48;;;;;;;6.38;3.60;;;;;;;;;;5044189;28;20048;-83
2023/09/07 13:10:14;;;;;;;6.38;3.60;;;;;;;;;;5044700;28;20049;-82
2023/09/07 13:12:40;;;;;;;8.05;3.75;;;;;;;;;;5044866;28;20077;-83
2023/09/07 13:15:07;;;;;;;8.43;3.75;;;;;;;;;;5045475;28;20120;-82
2023/09/07 13:17:33;;;;;;;7.22;3.53;;;;;;;;;;5040561;28;20108;-83
2023/09/07 13:20:02;;;;;;;7.47;3.78;;;;;;;;;;5042906;28;20080;-83
2023/09/07 13:22:28;;;;;;;7.30;3.90;;;;;;;;;;5044214;28;20120;-82
2023/09/07 13:24:54;;;;;;;6.97;3.80;;;;;;;;;;5039839;28;20507;-84
2023/09/07 13:27:20;;;;;;;7.03;3.70;;;;;;;;;;5039164;28;20064;-83
2023/09/07 13:29:46;;;;;;;10.32;4.22;;;;;;;;;;5046912;28;20041;-83
2023/09/07 13:32:12;;;;;;;7.28;3.83;;;;;;;;;;5040238;28;20124;-82
2023/09/07 13:34:38;;;;;;;8.02;3.53;;;;;;;;;;5039819;28;20053;-83
2023/09/07 13:37:05;;;;;;;8.05;3.63;;;;;;;;;;5037863;28;20037;-84
2023/09/07 13:39:31;;;;;;;7.10;3.40;;;;;;;;;;5038171;28;20041;-83
2023/09/07 13:41:57;;;;;;;9.25;3.60;;;;;;;;;;5037796;28;20041;-82
2023/09/07 13:44:23;;;;;;;6.85;3.97;;;;;;;;;;5042138;28;20072;-82
2023/09/07 13:46:49;;;;;;;8.77;4.13;;;;;;;;;;5046436;28;20041;-81
2023/09/07 13:49:15;;;;;;;7.65;4.20;;;;;;;;;;5045422;28;20058;-81
2023/09/07 13:51:41;;;;;;;6.95;4.22;;;;;;;;;;5040071;28;20392;-82
2023/09/07 13:54:08;;;;;;;7.88;3.92;;;;;;;;;;5031790;28;20068;-82
2023/09/07 13:56:36;;;;;;;7.53;3.60;;;;;;;;;;5031442;28;20060;-82
2023/09/07 13:59:02;;;;;;;9.20;4.45;;;;;;;;;;5035985;28;20041;-81
2023/09/07 14:01:28;;;;;;;6.13;4.20;;;;;;;;;;5032725;28;20131;-82
2023/09/07 14:03:54;;;;;;;6.60;4.15;;;;;;;;;;5029176;28;20106;-83
2023/09/07 14:06:23;;;;;;;8.15;3.75;;;;;;;;;;5033161;28;20050;-82
2023/09/07 14:08:51;;;;;;;8.48;4.00;;;;;;;;;;5034975;28;20116;-83
2023/09/07 14:11:17;;;;;;;9.43;4.00;;;;;;;;;;5032525;28;20042;-86
2023/09/07 14:13:43;;;;;;;6.35;4.10;;;;;;;;;;5031724;28;20095;-83
2023/09/07 14:16:12;;;;;;;7.63;3.83;;;;;;;;;;5036075;28;20053;-83
2023/09/07 14:18:38;;;;;;;6.78;3.72;;;;;;;;;;5033960;28;20049;-84
2023/09/07 14:21:04;;;;;;;6.30;3.60;;;;;;;;;;5032017;28;20118;-82
2023/09/07 14:23:30;;;;;;;7.32;4.00;;;;;;;;;;5018457;28;20049;-82
2023/09/07 14:25:56;;;;;;;6.70;3.78;;;;;;;;;;5036526;28;20121;-84
2023/09/07 14:28:22;;;;;;;7.45;3.80;;;;;;;;;;5034979;28;20053;-84
2023/09/07 14:30:49;;;;;;;8.07;3.70;;;;;;;;;;5032238;28;20041;-83
2023/09/07 14:33:15;;;;;;;8.55;4.00;;;;;;;;;;5037794;28;20099;-83
2023/09/07 14:35:41;;;;;;;10.43;3.80;;;;;;;;;;5020077;28;20562;-83